createdAt,value
2023-03-06T00:02:41.718Z,4.99
2023-03-06T00:05:39.124Z,4.97
2023-03-06T00:08:36.976Z,4.95
2023-03-06T00:11:34.754Z,4.96
2023-03-06T00:14:32.182Z,4.96
2023-03-06T00:17:29.984Z,4.95
2023-03-06T00:20:27.425Z,4.94
2023-03-06T00:23:25.064Z,4.93
2023-03-06T00:26:22.502Z,4.92
2023-03-06T00:29:20.327Z,4.91
2023-03-06T00:32:18.042Z,4.90
2023-03-06T00:35:15.976Z,4.89
2023-03-06T00:38:13.732Z,4.88
2023-03-06T00:41:11.176Z,4.87
2023-03-06T00:44:08.972Z,4.87
2023-03-06T00:47:06.390Z,4.86
2023-03-06T00:50:04.099Z,4.86
2023-03-06T00:53:01.531Z,4.85
2023-03-06T00:55:59.190Z,4.85
2023-03-06T00:58:56.611Z,4.85
2023-03-06T01:01:54.487Z,4.85
2023-03-06T01:04:52.133Z,4.83
2023-03-06T01:07:49.884Z,4.83
2023-03-06T01:10:47.556Z,4.84
2023-03-06T01:13:45.132Z,4.86
2023-03-06T01:16:42.987Z,4.84
2023-03-06T01:19:40.454Z,4.84
2023-03-06T01:22:38.097Z,4.85
2023-03-06T01:25:35.517Z,4.83
2023-03-06T01:28:34.276Z,4.82
2023-03-06T01:31:31.730Z,4.82
2023-03-06T01:34:29.376Z,4.81
2023-03-06T01:37:26.821Z,4.79
2023-03-06T01:40:24.588Z,4.77
2023-03-06T01:43:22.023Z,4.78
2023-03-06T01:46:19.721Z,4.76
2023-03-06T01:49:17.177Z,4.75
2023-03-06T01:52:14.810Z,4.76
2023-03-06T01:55:12.439Z,4.75
2023-03-06T01:58:09.892Z,4.74
2023-03-06T02:01:10.850Z,4.74
2023-03-06T02:04:08.297Z,4.72
2023-03-06T02:07:06.355Z,4.73
2023-03-06T02:10:04.053Z,4.74
2023-03-06T02:13:01.860Z,4.73
2023-03-06T02:15:59.305Z,4.74
2023-03-06T02:18:56.935Z,4.74
2023-03-06T02:21:54.391Z,4.73
2023-03-06T02:24:52.047Z,4.73
2023-03-06T02:27:49.796Z,4.72
2023-03-06T02:30:47.257Z,4.71
2023-03-06T02:33:45.549Z,4.71
2023-03-06T02:36:43.296Z,4.71
2023-03-06T02:39:41.065Z,4.71
2023-03-06T02:42:38.516Z,4.70
2023-03-06T02:45:36.304Z,4.68
2023-03-06T02:48:33.969Z,4.67
2023-03-06T02:51:31.406Z,4.66
2023-03-06T02:54:29.302Z,4.64
2023-03-06T02:57:26.739Z,4.63
2023-03-06T03:00:24.348Z,4.61
2023-03-06T03:03:22.093Z,4.59
2023-03-06T03:06:19.637Z,4.57
2023-03-06T03:09:17.372Z,4.57
2023-03-06T03:12:14.811Z,4.55
2023-03-06T03:15:12.574Z,4.54
2023-03-06T03:18:10.424Z,4.52
2023-03-06T03:21:08.159Z,4.51
2023-03-06T03:24:05.622Z,4.50
2023-03-06T03:27:03.396Z,4.49
2023-03-06T03:30:00.861Z,4.48
2023-03-06T03:32:58.513Z,4.46
2023-03-06T03:35:56.325Z,4.44
2023-03-06T03:38:53.798Z,4.41
2023-03-06T03:41:51.601Z,4.38
2023-03-06T03:44:49.040Z,4.37
2023-03-06T03:47:46.699Z,4.33
2023-03-06T03:50:44.141Z,4.31
2023-03-06T03:53:41.966Z,4.32
2023-03-06T03:56:40.895Z,4.31
2023-03-06T03:59:38.547Z,4.30
2023-03-06T04:02:36.309Z,4.28
2023-03-06T04:05:34.024Z,4.25
2023-03-06T04:08:31.677Z,4.26
2023-03-06T04:11:29.141Z,4.25
2023-03-06T04:14:26.792Z,4.23
2023-03-06T04:17:24.252Z,4.20
2023-03-06T04:20:21.976Z,4.16
2023-03-06T04:23:19.715Z,4.15
2023-03-06T04:26:17.176Z,4.13
2023-03-06T04:29:14.778Z,4.10
2023-03-06T04:32:12.273Z,4.08
2023-03-06T04:35:09.992Z,4.04
2023-03-06T04:38:07.469Z,4.02
2023-03-06T04:41:05.218Z,3.98
2023-03-06T04:44:03.224Z,3.93
2023-03-06T04:47:01.051Z,3.88
2023-03-06T04:49:58.549Z,3.86
2023-03-06T04:52:56.200Z,3.84
2023-03-06T04:55:53.977Z,3.80
2023-03-06T04:58:51.449Z,3.77
2023-03-06T05:01:49.120Z,3.76
2023-03-06T05:04:46.578Z,3.74
2023-03-06T05:07:44.298Z,3.74
2023-03-06T05:10:42.081Z,3.72
2023-03-06T05:13:39.551Z,3.69
2023-03-06T05:16:37.348Z,3.67
2023-03-06T05:19:34.847Z,3.65
2023-03-06T05:22:32.628Z,3.63
2023-03-06T05:25:30.071Z,3.59
2023-03-06T05:28:28.979Z,3.57
2023-03-06T05:31:26.686Z,3.55
2023-03-06T05:34:24.204Z,3.53
2023-03-06T05:37:23.454Z,3.52
2023-03-06T05:40:21.276Z,3.51
2023-03-06T05:43:18.920Z,3.50
2023-03-06T05:46:16.382Z,3.50
2023-03-06T05:49:14.676Z,3.51
2023-03-06T05:52:12.094Z,3.52
2023-03-06T05:55:09.738Z,3.53
2023-03-06T05:58:07.480Z,3.56
2023-03-06T06:01:04.912Z,3.59
2023-03-06T06:04:02.697Z,3.60
2023-03-06T06:07:00.149Z,3.60
2023-03-06T06:09:57.855Z,3.62
2023-03-06T06:12:55.297Z,3.64
2023-03-06T06:15:53.024Z,3.69
2023-03-06T06:18:50.506Z,3.71
2023-03-06T06:21:49.416Z,3.74
2023-03-06T06:24:46.864Z,3.78
2023-03-06T06:27:44.660Z,3.79
2023-03-06T06:30:42.347Z,3.82
2023-03-06T06:33:39.821Z,3.86
2023-03-06T06:36:37.524Z,3.91
2023-03-06T06:39:35.053Z,3.95
2023-03-06T06:42:38.243Z,3.98
2023-03-06T06:45:37.092Z,4.03
2023-03-06T06:48:34.733Z,4.09
2023-03-06T06:51:32.592Z,4.15
2023-03-06T06:54:30.382Z,4.21
2023-03-06T06:57:28.137Z,4.29
2023-03-06T07:00:25.599Z,4.36
2023-03-06T07:03:23.362Z,4.42
2023-03-06T07:06:20.828Z,4.50
2023-03-06T07:09:18.596Z,4.58
2023-03-06T07:12:16.152Z,4.68
2023-03-06T07:15:14.747Z,4.75
2023-03-06T07:18:12.618Z,4.82
2023-03-06T07:21:10.092Z,4.91
2023-03-06T07:24:07.838Z,4.99
2023-03-06T07:27:05.275Z,5.08
2023-03-06T07:30:03.700Z,5.17
2023-03-06T07:33:01.322Z,5.27
2023-03-06T07:35:58.832Z,5.38
2023-03-06T07:38:56.607Z,5.47
2023-03-06T07:41:54.204Z,5.57
2023-03-06T07:44:52.036Z,5.65
2023-03-06T07:47:49.479Z,5.74
2023-03-06T07:50:47.061Z,5.82
2023-03-06T07:53:44.802Z,5.90
2023-03-06T07:56:42.244Z,5.95
2023-03-06T07:59:39.893Z,5.98
2023-03-06T08:02:37.359Z,6.02
2023-03-06T08:05:35.142Z,6.11
2023-03-06T08:08:32.598Z,6.19
2023-03-06T08:11:30.255Z,6.29
2023-03-06T08:14:27.725Z,6.39
2023-03-06T08:17:25.497Z,6.48
2023-03-06T08:20:23.072Z,6.58
2023-03-06T08:23:20.927Z,6.68
2023-03-06T08:26:18.798Z,6.76
2023-03-06T08:29:16.871Z,6.78
2023-03-06T08:32:15.194Z,6.81
2023-03-06T08:35:12.712Z,6.84
2023-03-06T08:38:10.500Z,6.88
2023-03-06T08:41:07.991Z,6.98
2023-03-06T08:44:05.811Z,7.14
2023-03-06T08:47:03.607Z,7.27
2023-03-06T08:50:01.034Z,7.36
2023-03-06T08:52:59.219Z,7.47
2023-03-06T08:55:56.773Z,7.61
2023-03-06T08:58:54.560Z,7.78
2023-03-06T09:01:52.108Z,8.09
2023-03-06T09:04:49.867Z,8.47
2023-03-06T09:07:47.332Z,9.13
2023-03-06T09:10:45.221Z,9.68
2023-03-06T09:13:43.171Z,10.14
2023-03-06T09:16:40.676Z,10.55
2023-03-06T09:19:39.022Z,10.61
2023-03-06T09:22:36.511Z,10.61
2023-03-06T09:25:34.245Z,10.51
2023-03-06T09:28:31.805Z,10.55
2023-03-06T09:31:30.614Z,10.46
2023-03-06T09:34:29.183Z,10.68
2023-03-06T09:37:26.651Z,11.18
2023-03-06T09:40:24.311Z,11.53
2023-03-06T09:43:21.871Z,11.73
2023-03-06T09:46:19.715Z,11.84
2023-03-06T09:49:17.222Z,12.01
2023-03-06T09:52:14.850Z,12.27
2023-03-06T09:55:12.808Z,12.34
2023-03-06T09:58:10.636Z,12.44
2023-03-06T10:01:09.818Z,12.45
2023-03-06T10:04:07.272Z,12.21
2023-03-06T10:07:04.952Z,11.82
2023-03-06T10:10:02.392Z,11.47
2023-03-06T10:13:00.051Z,11.34
2023-03-06T10:15:57.652Z,11.21
2023-03-06T10:18:56.280Z,11.04
2023-03-06T10:21:53.869Z,10.69
2023-03-06T10:24:51.739Z,10.40
2023-03-06T10:27:49.240Z,10.19
2023-03-06T10:30:47.395Z,10.07
2023-03-06T10:33:45.655Z,10.08
2023-03-06T10:36:43.225Z,10.08
2023-03-06T10:39:41.415Z,10.03
2023-03-06T10:42:38.988Z,9.99
2023-03-06T10:45:48.657Z,10.03
2023-03-06T10:48:47.666Z,10.18
2023-03-06T10:51:45.147Z,10.52
2023-03-06T10:54:42.836Z,10.92
2023-03-06T10:57:40.404Z,11.01
2023-03-06T11:00:38.047Z,10.83
2023-03-06T11:03:35.722Z,10.66
2023-03-06T11:06:35.027Z,10.56
2023-03-06T11:09:33.830Z,10.40
2023-03-06T11:12:32.447Z,10.31
2023-03-06T11:15:30.272Z,10.28
2023-03-06T11:18:28.909Z,10.48
2023-03-06T11:21:26.763Z,10.70
2023-03-06T11:24:24.284Z,10.84
2023-03-06T11:27:22.866Z,10.85
2023-03-06T11:30:20.368Z,11.05
2023-03-06T11:33:18.199Z,11.15
2023-03-06T11:36:15.977Z,11.13
2023-03-06T11:39:15.214Z,11.09
2023-03-06T11:42:13.349Z,11.10
2023-03-06T11:45:11.316Z,11.07
2023-03-06T11:48:09.082Z,10.81
2023-03-06T11:51:06.691Z,10.51
2023-03-06T11:54:04.723Z,10.28
2023-03-06T11:57:02.182Z,10.25
2023-03-06T11:59:59.951Z,10.40
2023-03-06T12:02:57.405Z,10.45
2023-03-06T12:05:55.174Z,10.43
2023-03-06T12:08:52.653Z,10.49
2023-03-06T12:11:50.401Z,10.55
2023-03-06T12:14:48.474Z,10.47
2023-03-06T12:17:45.913Z,10.40
2023-03-06T12:20:43.804Z,10.35
2023-03-06T12:23:41.265Z,10.22
2023-03-06T12:26:39.139Z,10.16
2023-03-06T12:29:36.593Z,10.42
2023-03-06T12:32:35.556Z,10.48
2023-03-06T12:35:33.161Z,10.44
2023-03-06T12:38:30.921Z,10.51
2023-03-06T12:41:29.816Z,10.59
2023-03-06T12:44:27.379Z,11.06
2023-03-06T12:47:25.347Z,11.57
2023-03-06T12:50:22.800Z,11.86
2023-03-06T12:53:22.116Z,12.00
2023-03-06T12:56:19.681Z,12.29
2023-03-06T12:59:17.448Z,12.57
2023-03-06T13:02:15.448Z,12.91
2023-03-06T13:05:13.085Z,13.05
2023-03-06T13:08:10.951Z,12.99
2023-03-06T13:11:08.412Z,12.85
2023-03-06T13:14:06.490Z,12.56
2023-03-06T13:17:03.947Z,12.25
2023-03-06T13:20:01.816Z,12.07
2023-03-06T13:22:59.901Z,11.89
2023-03-06T13:25:57.490Z,11.69
2023-03-06T13:28:55.324Z,11.50
2023-03-06T13:31:52.782Z,11.35
2023-03-06T13:34:52.091Z,11.23
2023-03-06T13:37:50.058Z,11.20
2023-03-06T13:40:47.820Z,11.19
2023-03-06T13:43:45.691Z,11.20
2023-03-06T13:46:43.260Z,11.17
2023-03-06T13:49:41.032Z,11.13
2023-03-06T13:52:38.581Z,11.08
2023-03-06T13:55:36.559Z,11.02
2023-03-06T13:58:34.032Z,10.95
2023-03-06T14:01:31.836Z,10.86
2023-03-06T14:04:30.892Z,10.83
2023-03-06T14:07:28.654Z,10.81
2023-03-06T14:10:26.443Z,10.83
2023-03-06T14:13:23.983Z,10.84
2023-03-06T14:16:21.817Z,10.83
2023-03-06T14:19:19.461Z,10.82
2023-03-06T14:22:17.376Z,10.78
2023-03-06T14:25:14.941Z,10.75
2023-03-06T14:28:14.390Z,10.69
2023-03-06T14:31:12.685Z,10.61
2023-03-06T14:34:10.394Z,10.57
2023-03-06T14:37:08.371Z,10.51
2023-03-06T14:40:06.133Z,10.44
2023-03-06T14:43:03.903Z,10.36
2023-03-06T14:46:01.356Z,10.30
2023-03-06T14:48:59.341Z,10.21
2023-03-06T14:51:57.618Z,10.14
2023-03-06T14:54:55.267Z,10.07
2023-03-06T14:57:53.066Z,10.04
2023-03-06T15:00:50.828Z,10.01
2023-03-06T15:03:48.804Z,9.98
2023-03-06T15:06:46.765Z,9.99
2023-03-06T15:09:44.630Z,10.00
2023-03-06T15:12:43.108Z,9.99
2023-03-06T15:15:40.668Z,9.94
2023-03-06T15:18:41.405Z,9.92
2023-03-06T15:21:38.881Z,9.89
2023-03-06T15:24:37.255Z,9.87
2023-03-06T15:27:34.808Z,9.86
2023-03-06T15:30:32.799Z,9.87
2023-03-06T15:33:30.547Z,9.81
2023-03-06T15:36:29.784Z,9.77
2023-03-06T15:39:27.537Z,9.73
2023-03-06T15:42:25.074Z,9.63
2023-03-06T15:45:23.084Z,9.56
2023-03-06T15:48:20.716Z,9.49
2023-03-06T15:51:18.512Z,9.42
2023-03-06T15:54:16.470Z,9.37
2023-03-06T15:57:14.564Z,9.33
2023-03-06T16:00:26.592Z,9.27
2023-03-06T16:03:25.123Z,9.18
2023-03-06T16:06:23.502Z,9.11
2023-03-06T16:09:22.804Z,9.05
2023-03-06T16:12:20.584Z,8.98
2023-03-06T16:15:18.441Z,8.91
2023-03-06T16:18:16.108Z,8.85
2023-03-06T16:21:15.511Z,8.82
2023-03-06T16:24:15.510Z,8.78
2023-03-06T16:27:13.498Z,8.73
2023-03-06T16:30:11.798Z,8.68
2023-03-06T16:33:15.360Z,8.64
2023-03-06T16:36:13.663Z,8.58
2023-03-06T16:39:11.530Z,8.53
2023-03-06T16:42:11.040Z,8.49
2023-03-06T16:45:10.292Z,8.45
2023-03-06T16:48:08.314Z,8.40
2023-03-06T16:51:06.183Z,8.34
2023-03-06T16:54:05.155Z,8.30
2023-03-06T16:57:04.192Z,8.26
2023-03-06T17:00:02.969Z,8.25
2023-03-06T17:03:01.045Z,8.20
2023-03-06T17:05:59.906Z,8.18
2023-03-06T17:08:58.363Z,8.16
2023-03-06T17:11:55.880Z,8.14
2023-03-06T17:14:55.555Z,8.11
2023-03-06T17:17:54.179Z,8.08
2023-03-06T17:20:53.471Z,8.06
2023-03-06T17:23:52.275Z,8.04
2023-03-06T17:26:49.840Z,8.02
2023-03-06T17:29:48.527Z,8.00
2023-03-06T17:32:47.623Z,7.97
2023-03-06T17:35:45.525Z,7.91
2023-03-06T17:38:43.158Z,7.87
2023-03-06T17:41:41.132Z,7.81
2023-03-06T17:44:40.220Z,7.75
2023-03-06T17:47:39.973Z,7.67
2023-03-06T17:50:37.925Z,7.61
2023-03-06T17:53:35.999Z,7.53
2023-03-06T17:56:34.020Z,7.44
2023-03-06T17:59:34.026Z,7.38
2023-03-06T18:02:32.312Z,7.29
2023-03-06T18:05:31.520Z,7.21
2023-03-06T18:08:30.672Z,7.14
2023-03-06T18:11:31.288Z,7.03
2023-03-06T18:14:29.672Z,6.94
2023-03-06T18:17:28.632Z,6.85
2023-03-06T18:20:28.029Z,6.77
2023-03-06T18:23:27.838Z,6.69
2023-03-06T18:26:27.866Z,6.63
2023-03-06T18:29:27.172Z,6.60
2023-03-06T18:32:26.371Z,6.56
2023-03-06T18:35:25.026Z,6.52
2023-03-06T18:38:35.159Z,6.50
2023-03-06T18:41:33.744Z,6.45
2023-03-06T18:44:33.025Z,6.43
2023-03-06T18:47:31.847Z,6.40
2023-03-06T18:50:32.686Z,6.40
2023-03-06T18:53:32.459Z,6.38
2023-03-06T18:56:31.618Z,6.36
2023-03-06T18:59:31.820Z,6.34
2023-03-06T19:02:32.395Z,6.34
2023-03-06T19:05:31.690Z,6.32
2023-03-06T19:08:34.023Z,6.29
2023-03-06T19:11:32.896Z,6.25
2023-03-06T19:14:32.310Z,6.20
2023-03-06T19:17:32.467Z,6.16
2023-03-06T19:20:30.428Z,6.14
2023-03-06T19:23:33.644Z,6.14
2023-03-06T19:26:32.083Z,6.11
2023-03-06T19:29:33.731Z,6.10
2023-03-06T19:32:32.162Z,6.10
2023-03-06T19:35:36.607Z,6.08
2023-03-06T19:38:36.702Z,6.06
2023-03-06T19:41:37.297Z,6.04
2023-03-06T19:44:38.346Z,6.04
2023-03-06T19:47:39.580Z,6.03
2023-03-06T19:50:41.124Z,6.00
2023-03-06T19:53:40.700Z,5.97
2023-03-06T19:56:41.006Z,5.94
2023-03-06T19:59:40.858Z,5.93
2023-03-06T20:02:40.793Z,5.91
2023-03-06T20:05:40.236Z,5.89
2023-03-06T20:08:38.642Z,5.88
2023-03-06T20:11:38.499Z,5.88
2023-03-06T20:14:41.753Z,5.92
2023-03-06T20:17:42.888Z,5.94
2023-03-06T20:20:42.568Z,5.97
2023-03-06T20:23:42.118Z,5.99
2023-03-06T20:26:40.736Z,6.01
2023-03-06T20:29:44.292Z,6.02
2023-03-06T20:32:44.143Z,6.04
2023-03-06T20:35:43.665Z,6.04
2023-03-06T20:38:43.042Z,6.06
2023-03-06T20:41:44.384Z,6.08
2023-03-06T20:44:44.585Z,6.09
2023-03-06T20:47:47.916Z,6.11
2023-03-06T20:50:46.652Z,6.13
2023-03-06T20:53:46.537Z,6.15
2023-03-06T20:56:46.531Z,6.17
2023-03-06T20:59:46.149Z,6.19
2023-03-06T21:02:48.479Z,6.20
2023-03-06T21:05:46.153Z,6.22
2023-03-06T21:08:44.353Z,6.23
2023-03-06T21:11:42.132Z,6.23
2023-03-06T21:14:41.221Z,6.24
2023-03-06T21:17:39.844Z,6.25
2023-03-06T21:20:37.681Z,6.24
2023-03-06T21:23:36.707Z,6.24
2023-03-06T21:26:35.369Z,6.24
2023-03-06T21:29:33.134Z,6.23
2023-03-06T21:32:31.158Z,6.22
2023-03-06T21:35:29.849Z,6.21
2023-03-06T21:38:27.850Z,6.22
2023-03-06T21:41:25.862Z,6.19
2023-03-06T21:44:23.406Z,6.17
2023-03-06T21:47:21.336Z,6.13
2023-03-06T21:50:18.836Z,6.12
2023-03-06T21:53:16.727Z,6.11
2023-03-06T21:56:14.685Z,6.12
2023-03-06T21:59:12.240Z,6.09
2023-03-06T22:02:10.008Z,6.08
2023-03-06T22:05:07.569Z,6.07
2023-03-06T22:08:05.336Z,6.08
2023-03-06T22:11:02.771Z,6.08
2023-03-06T22:14:00.563Z,6.08
2023-03-06T22:16:58.540Z,6.07
2023-03-06T22:19:56.097Z,6.06
2023-03-06T22:22:53.865Z,6.05
2023-03-06T22:25:51.427Z,6.05
2023-03-06T22:28:49.307Z,6.05
2023-03-06T22:31:46.933Z,6.05
2023-03-06T22:34:45.137Z,6.04
2023-03-06T22:37:42.699Z,6.03
2023-03-06T22:40:40.463Z,6.03
2023-03-06T22:43:39.148Z,6.02
2023-03-06T22:46:36.712Z,6.02
2023-03-06T22:49:35.094Z,6.01
2023-03-06T22:52:32.655Z,6.00
2023-03-06T22:55:31.453Z,6.01
2023-03-06T22:58:34.255Z,6.00
2023-03-06T23:01:32.135Z,5.99
2023-03-06T23:04:30.467Z,5.99
2023-03-06T23:07:28.149Z,5.99
2023-03-06T23:10:26.121Z,5.96
2023-03-06T23:13:23.586Z,5.93
2023-03-06T23:16:22.478Z,5.88
2023-03-06T23:19:19.938Z,5.87
2023-03-06T23:22:17.712Z,5.85
2023-03-06T23:25:15.267Z,5.81
2023-03-06T23:28:13.178Z,5.78
2023-03-06T23:31:10.955Z,5.75
2023-03-06T23:34:11.040Z,5.71
2023-03-06T23:37:08.796Z,5.68
2023-03-06T23:40:08.200Z,5.63
2023-03-06T23:43:05.972Z,5.61
2023-03-06T23:46:03.552Z,5.59
2023-03-06T23:49:01.399Z,5.57
2023-03-06T23:51:59.372Z,5.54
2023-03-06T23:54:57.143Z,5.52
2023-03-06T23:57:54.905Z,5.49
